Terminal Aerodrome Forecast
Issued by NWS

Home | Current Version | Previous Version | Text Only | Print | Product List | Glossary On
Versions: 1 2 3 4 5 6 7 8 9 10 11 12 13 14
242
FTUS41 KAKQ 262323
TAFPHF
TAF
KPHF 262323Z 2700/2724 16006KT P6SM OVC045
     FM270300 19007KT P6SM SCT025 OVC040
     FM271200 22006KT 5SM -SHRA BR BKN015 OVC030
     FM272000 14006KT 3SM SHRA BR BKN015=

USA.gov is the U.S. government's official web portal to all federal, state and local government web resources and services.